Miccosukee, Florida
Current Conditions -  °F | °C
As of 3:53 PM on Wednesday 26 Nov 2014 (Local Time) from KTLH Reporting Station
Clear Clear  
Wind Chill: 63°   Ceiling: Unl
Heat Index: 63°   Visibility: 10mi
Dew Point: 26°   Wind: 13mph
Humidity: 25%   Direction: 330°NNW
Pressure: 30.16"   Gusts: NA
Location:  30.59°N, 84.04°W
Report Text: KTLH 261953Z 33011KT 10SM CLR 17/M03 A3016 RMK AO2 SLP211 T01721033 $
Loading
Personal Weather Stations






























Interactive Weather Map New forecast layout! Learn more

10-Day Weather Forecast

Advertisements
Track Severe Weather on mobile